createdAt,value
2016-03-30T00:00:02.104Z,0
2016-03-30T00:01:02.076Z,0
2016-03-30T00:02:01.923Z,0
2016-03-30T00:03:02.034Z,0
2016-03-30T00:04:02.037Z,0
2016-03-30T00:05:02.009Z,0
2016-03-30T00:06:01.964Z,0
2016-03-30T00:07:01.967Z,0
2016-03-30T00:08:01.923Z,0
2016-03-30T00:09:01.895Z,0
2016-03-30T00:10:01.850Z,0
2016-03-30T00:11:01.853Z,0
2016-03-30T00:12:01.809Z,0
2016-03-30T00:13:01.765Z,0
2016-03-30T00:14:01.736Z,0
2016-03-30T00:15:01.707Z,0
2016-03-30T00:16:01.711Z,0
2016-03-30T00:17:01.682Z,0
2016-03-30T00:18:01.653Z,0
2016-03-30T00:19:01.625Z,0
2016-03-30T00:20:01.612Z,0
2016-03-30T00:21:01.583Z,0
2016-03-30T00:22:01.538Z,0
2016-03-30T00:23:01.511Z,0
2016-03-30T00:24:01.482Z,0
2016-03-30T00:25:01.313Z,0
2016-03-30T00:26:01.424Z,0
2016-03-30T00:27:01.427Z,0
2016-03-30T00:28:01.415Z,0
2016-03-30T00:29:01.354Z,0
2016-03-30T00:30:01.326Z,0
2016-03-30T00:31:01.313Z,0
2016-03-30T00:32:01.268Z,0
2016-03-30T00:33:01.240Z,0
2016-03-30T00:34:01.227Z,0
2016-03-30T00:35:01.183Z,0
2016-03-30T00:36:01.186Z,0
2016-03-30T00:37:01.188Z,0
2016-03-30T00:38:01.129Z,0
2016-03-30T00:39:01.100Z,0
2016-03-30T00:40:01.072Z,0
2016-03-30T00:41:01.043Z,0
2016-03-30T00:42:01.061Z,0
2016-03-30T00:43:01.048Z,0
2016-03-30T00:44:00.957Z,0
2016-03-30T00:45:01.101Z,0
2016-03-30T00:46:00.916Z,0
2016-03-30T00:47:00.888Z,0
2016-03-30T00:48:00.858Z,0
2016-03-30T00:49:00.877Z,0
2016-03-30T00:50:00.817Z,0
2016-03-30T00:51:00.774Z,0
2016-03-30T00:52:00.745Z,0
2016-03-30T00:53:00.747Z,0
2016-03-30T00:54:00.702Z,0
2016-03-30T00:55:00.674Z,0
2016-03-30T00:56:00.708Z,0
2016-03-30T00:57:00.649Z,0
2016-03-30T00:58:00.588Z,0
2016-03-30T00:59:00.576Z,0
2016-03-30T01:00:00.423Z,0
2016-03-30T01:01:00.550Z,0
2016-03-30T01:02:00.491Z,0
2016-03-30T01:03:00.477Z,0
2016-03-30T01:04:00.434Z,0
2016-03-30T01:05:00.420Z,0
2016-03-30T01:06:00.407Z,0
2016-03-30T01:07:00.376Z,0
2016-03-30T01:08:00.321Z,0
2016-03-30T01:09:00.298Z,0
2016-03-30T01:10:00.258Z,0
2016-03-30T01:11:00.219Z,0
2016-03-30T01:12:00.182Z,0
2016-03-30T01:13:00.180Z,0
2016-03-30T01:14:06.850Z,0
2016-03-30T01:15:05.067Z,0
2016-03-30T01:16:04.284Z,0
2016-03-30T01:17:00.064Z,0
2016-03-30T01:18:00.003Z,0
2016-03-30T01:18:59.973Z,0
2016-03-30T01:19:59.959Z,0
2016-03-30T01:20:59.913Z,0
2016-03-30T01:21:59.899Z,0
2016-03-30T01:22:59.870Z,0
2016-03-30T01:23:59.841Z,0
2016-03-30T01:24:59.827Z,0
2016-03-30T01:25:59.798Z,0
2016-03-30T01:26:59.770Z,0
2016-03-30T01:27:59.726Z,0
2016-03-30T01:28:59.728Z,0
2016-03-30T01:29:59.762Z,0
2016-03-30T01:30:59.672Z,0
2016-03-30T01:31:59.642Z,0
2016-03-30T01:32:59.614Z,0
2016-03-30T01:33:59.601Z,0
2016-03-30T01:34:59.558Z,0
2016-03-30T01:35:59.528Z,0
2016-03-30T01:36:59.499Z,0
2016-03-30T01:37:59.486Z,0
2016-03-30T01:38:59.458Z,0
2016-03-30T01:39:59.430Z,0
2016-03-30T01:40:59.402Z,0
2016-03-30T01:41:59.372Z,0
2016-03-30T01:42:59.344Z,0
2016-03-30T01:43:59.159Z,0
2016-03-30T01:44:59.413Z,0
2016-03-30T01:45:59.118Z,0
2016-03-30T01:46:59.246Z,0
2016-03-30T01:47:59.232Z,0
2016-03-30T01:48:59.205Z,0
2016-03-30T01:49:59.160Z,0
2016-03-30T01:50:59.147Z,0
2016-03-30T01:51:59.104Z,0
2016-03-30T01:52:59.074Z,0
2016-03-30T01:53:59.076Z,0
2016-03-30T01:54:59.048Z,0
2016-03-30T01:55:59.004Z,0
2016-03-30T01:56:58.992Z,0
2016-03-30T01:57:58.963Z,0
2016-03-30T01:58:58.950Z,0
2016-03-30T01:59:58.905Z,0
2016-03-30T02:00:58.892Z,0
2016-03-30T02:01:58.864Z,0
2016-03-30T02:02:58.836Z,0
2016-03-30T02:03:58.806Z,0
2016-03-30T02:04:58.778Z,0
2016-03-30T02:05:58.750Z,0
2016-03-30T02:06:58.752Z,0
2016-03-30T02:07:58.708Z,0
2016-03-30T02:08:58.680Z,0
2016-03-30T02:09:58.667Z,0
2016-03-30T02:10:58.482Z,0
2016-03-30T02:11:58.594Z,0
2016-03-30T02:12:58.424Z,0
2016-03-30T02:13:58.553Z,0
2016-03-30T02:14:58.555Z,0
2016-03-30T02:15:58.526Z,0
2016-03-30T02:16:58.499Z,0
2016-03-30T02:17:58.454Z,0
2016-03-30T02:18:58.441Z,0
2016-03-30T02:19:58.397Z,0
2016-03-30T02:20:58.384Z,0
2016-03-30T02:21:58.324Z,0
2016-03-30T02:22:58.358Z,0
2016-03-30T02:23:58.314Z,0
2016-03-30T02:24:58.285Z,0
2016-03-30T02:25:58.241Z,0
2016-03-30T02:26:58.213Z,0
2016-03-30T02:27:58.184Z,0
2016-03-30T02:28:58.171Z,0
2016-03-30T02:29:58.081Z,0
2016-03-30T02:30:58.130Z,0
2016-03-30T02:31:58.101Z,0
2016-03-30T02:32:58.104Z,0
2016-03-30T02:33:58.044Z,0
2016-03-30T02:34:58.031Z,0
2016-03-30T02:35:58.003Z,0
2016-03-30T02:36:57.975Z,0
2016-03-30T02:37:57.961Z,0
2016-03-30T02:38:57.933Z,0
2016-03-30T02:39:57.903Z,0
2016-03-30T02:40:57.891Z,0
2016-03-30T02:41:57.847Z,0
2016-03-30T02:42:57.819Z,0
2016-03-30T02:43:57.805Z,0
2016-03-30T02:44:57.824Z,0
2016-03-30T02:45:57.764Z,0
2016-03-30T02:46:57.719Z,0
2016-03-30T02:47:57.707Z,0
2016-03-30T02:48:57.662Z,0
2016-03-30T02:49:57.650Z,0
2016-03-30T02:50:57.621Z,0
2016-03-30T02:51:57.593Z,0
2016-03-30T02:52:57.564Z,0
2016-03-30T02:53:57.551Z,0
2016-03-30T02:54:57.523Z,0
2016-03-30T02:55:57.494Z,0
2016-03-30T02:56:57.481Z,0
2016-03-30T02:57:57.438Z,0
2016-03-30T02:58:57.409Z,0
2016-03-30T02:59:57.457Z,0
2016-03-30T03:00:57.382Z,0
2016-03-30T03:01:57.354Z,0
2016-03-30T03:02:57.340Z,0
2016-03-30T03:03:57.297Z,0
2016-03-30T03:04:57.268Z,0
2016-03-30T03:05:57.240Z,0
2016-03-30T03:06:57.226Z,0
2016-03-30T03:07:57.214Z,0
2016-03-30T03:08:57.170Z,0
2016-03-30T03:09:57.156Z,0
2016-03-30T03:10:57.112Z,0
2016-03-30T03:11:57.115Z,0
2016-03-30T03:12:57.055Z,0
2016-03-30T03:13:57.042Z,0
2016-03-30T03:14:57.123Z,0
2016-03-30T03:15:57.001Z,0
2016-03-30T03:16:56.989Z,0
2016-03-30T03:17:56.945Z,0
2016-03-30T03:18:56.915Z,0
2016-03-30T03:19:56.903Z,0
2016-03-30T03:20:56.859Z,0
2016-03-30T03:21:56.830Z,0
2016-03-30T03:22:56.677Z,0
2016-03-30T03:23:56.805Z,0
2016-03-30T03:24:56.775Z,0
2016-03-30T03:25:56.763Z,0
2016-03-30T03:26:56.750Z,0
2016-03-30T03:27:56.705Z,0
2016-03-30T03:28:56.677Z,0
2016-03-30T03:29:56.649Z,0
2016-03-30T03:30:56.620Z,0
2016-03-30T03:31:56.590Z,0
2016-03-30T03:32:56.578Z,0
2016-03-30T03:33:56.549Z,0
2016-03-30T03:34:56.521Z,0
2016-03-30T03:35:56.492Z,0
2016-03-30T03:36:56.340Z,0
2016-03-30T03:37:56.467Z,0
2016-03-30T03:38:56.438Z,0
2016-03-30T03:39:56.410Z,0
2016-03-30T03:40:56.397Z,0
2016-03-30T03:41:56.353Z,0
2016-03-30T03:42:56.323Z,0
2016-03-30T03:43:56.311Z,0
2016-03-30T03:44:56.283Z,0
2016-03-30T03:45:56.238Z,0
2016-03-30T03:46:56.226Z,0
2016-03-30T03:47:56.197Z,0
2016-03-30T03:48:56.169Z,0
2016-03-30T03:49:56.140Z,0
2016-03-30T03:50:56.095Z,0
2016-03-30T03:51:56.114Z,0
2016-03-30T03:52:56.069Z,0
2016-03-30T03:53:56.057Z,0
2016-03-30T03:54:56.013Z,0
2016-03-30T03:55:55.983Z,0
2016-03-30T03:56:55.971Z,0
2016-03-30T03:57:55.942Z,0
2016-03-30T03:58:55.929Z,0
2016-03-30T03:59:55.729Z,0
2016-03-30T04:00:55.857Z,0
2016-03-30T04:01:55.843Z,0
2016-03-30T04:02:55.815Z,0
2016-03-30T04:03:55.802Z,0
2016-03-30T04:04:55.773Z,0
2016-03-30T04:05:55.745Z,0
2016-03-30T04:06:55.717Z,0
2016-03-30T04:07:55.688Z,0
2016-03-30T04:08:55.659Z,0
2016-03-30T04:09:55.646Z,0
2016-03-30T04:10:55.618Z,0
2016-03-30T04:11:55.573Z,0
2016-03-30T04:12:55.561Z,0
2016-03-30T04:13:55.547Z,0
2016-03-30T04:14:55.519Z,0
2016-03-30T04:15:55.475Z,0
2016-03-30T04:16:55.461Z,0
2016-03-30T04:17:55.434Z,0
2016-03-30T04:18:55.420Z,0
2016-03-30T04:19:55.392Z,0
2016-03-30T04:20:55.348Z,0
2016-03-30T04:21:55.336Z,0
2016-03-30T04:22:55.306Z,0
2016-03-30T04:23:55.278Z,0
2016-03-30T04:24:55.249Z,0
2016-03-30T04:25:55.221Z,0
2016-03-30T04:26:55.192Z,0
2016-03-30T04:27:55.180Z,0
2016-03-30T04:28:55.152Z,0
2016-03-30T04:29:55.122Z,0
2016-03-30T04:30:55.094Z,0
2016-03-30T04:31:55.066Z,0
2016-03-30T04:32:55.068Z,0
2016-03-30T04:33:55.024Z,0
2016-03-30T04:34:54.995Z,0
2016-03-30T04:35:55.013Z,0
2016-03-30T04:36:54.954Z,0
2016-03-30T04:37:54.909Z,0
2016-03-30T04:38:54.881Z,0
2016-03-30T04:39:54.851Z,0
2016-03-30T04:40:54.854Z,0
2016-03-30T04:41:54.826Z,0
2016-03-30T04:42:54.766Z,0
2016-03-30T04:43:54.770Z,0
2016-03-30T04:44:54.772Z,0
2016-03-30T04:45:54.712Z,0
2016-03-30T04:46:54.668Z,0
2016-03-30T04:47:54.656Z,0
2016-03-30T04:48:54.626Z,0
2016-03-30T04:49:54.598Z,0
2016-03-30T04:50:54.553Z,0
2016-03-30T04:51:54.556Z,0
2016-03-30T04:52:54.528Z,0
2016-03-30T04:53:54.499Z,0
2016-03-30T04:54:54.471Z,0
2016-03-30T04:55:54.457Z,0
2016-03-30T04:56:54.429Z,0
2016-03-30T04:57:54.400Z,0
2016-03-30T04:58:54.371Z,0
2016-03-30T04:59:54.344Z,0
2016-03-30T05:00:54.315Z,0
2016-03-30T05:01:54.286Z,0
2016-03-30T05:02:54.274Z,0
2016-03-30T05:03:54.245Z,0
2016-03-30T05:04:54.216Z,0
2016-03-30T05:05:54.187Z,0
2016-03-30T05:06:54.159Z,0
2016-03-30T05:07:54.131Z,5
2016-03-30T05:08:54.118Z,5
2016-03-30T05:09:54.090Z,5
2016-03-30T05:10:54.060Z,5
2016-03-30T05:11:54.032Z,5
2016-03-30T05:12:53.988Z,5
2016-03-30T05:13:53.991Z,5
2016-03-30T05:14:53.962Z,10
2016-03-30T05:15:53.934Z,10
2016-03-30T05:16:53.920Z,10
2016-03-30T05:17:53.876Z,10
2016-03-30T05:18:53.847Z,10
2016-03-30T05:19:53.819Z,10
2016-03-30T05:20:53.775Z,15
2016-03-30T05:21:53.777Z,15
2016-03-30T05:22:53.764Z,15
2016-03-30T05:23:53.720Z,15
2016-03-30T05:24:53.708Z,20
2016-03-30T05:25:53.664Z,20
2016-03-30T05:26:53.650Z,25
2016-03-30T05:27:53.622Z,25
2016-03-30T05:28:53.609Z,25
2016-03-30T05:29:53.580Z,25
2016-03-30T05:30:53.536Z,30
2016-03-30T05:31:53.538Z,30
2016-03-30T05:32:53.494Z,30
2016-03-30T05:33:53.466Z,35
2016-03-30T05:34:53.437Z,30
2016-03-30T05:35:53.424Z,35
2016-03-30T05:36:53.395Z,35
2016-03-30T05:37:53.367Z,40
2016-03-30T05:38:53.339Z,40
2016-03-30T05:39:53.310Z,35
2016-03-30T05:40:53.298Z,35
2016-03-30T05:41:53.269Z,35
2016-03-30T05:42:53.225Z,35
2016-03-30T05:43:53.228Z,40
2016-03-30T05:44:53.199Z,45
2016-03-30T05:45:53.170Z,45
2016-03-30T05:46:53.142Z,45
2016-03-30T05:47:53.113Z,45
2016-03-30T05:48:53.100Z,50
2016-03-30T05:49:53.056Z,50
2016-03-30T05:50:53.027Z,50
2016-03-30T05:51:52.996Z,50
2016-03-30T05:52:52.984Z,50
2016-03-30T05:53:52.939Z,55
2016-03-30T05:54:52.926Z,55
2016-03-30T05:55:52.758Z,55
2016-03-30T05:56:52.869Z,55
2016-03-30T05:57:52.841Z,55
2016-03-30T05:58:52.827Z,55
2016-03-30T05:59:52.627Z,55
2016-03-30T06:00:52.771Z,60
2016-03-30T06:01:52.758Z,70
2016-03-30T06:02:52.713Z,75
2016-03-30T06:03:52.700Z,80
2016-03-30T06:04:52.671Z,85
2016-03-30T06:05:52.643Z,80
2016-03-30T06:06:52.630Z,70
2016-03-30T06:07:52.602Z,60
2016-03-30T06:08:52.574Z,60
2016-03-30T06:09:52.529Z,65
2016-03-30T06:10:52.516Z,75
2016-03-30T06:11:52.488Z,85
2016-03-30T06:12:52.459Z,85
2016-03-30T06:13:52.431Z,95
2016-03-30T06:14:52.417Z,95
2016-03-30T06:15:52.389Z,100
2016-03-30T06:16:52.345Z,105
2016-03-30T06:17:52.331Z,110
2016-03-30T06:18:52.319Z,110
2016-03-30T06:19:52.289Z,115
2016-03-30T06:20:52.245Z,135
2016-03-30T06:21:52.233Z,145
2016-03-30T06:22:52.204Z,145
2016-03-30T06:23:52.191Z,140
2016-03-30T06:24:52.178Z,135
2016-03-30T06:25:52.134Z,135
2016-03-30T06:26:52.091Z,145
2016-03-30T06:27:52.078Z,160
2016-03-30T06:28:52.049Z,165
2016-03-30T06:29:52.020Z,170
2016-03-30T06:30:52.007Z,175
2016-03-30T06:31:51.822Z,175
2016-03-30T06:32:51.966Z,170
2016-03-30T06:33:51.937Z,160
2016-03-30T06:34:51.909Z,150
2016-03-30T06:35:51.880Z,160
2016-03-30T06:36:51.852Z,170
2016-03-30T06:37:51.839Z,170
2016-03-30T06:38:51.810Z,165
2016-03-30T06:39:51.782Z,160
2016-03-30T06:40:51.753Z,160
2016-03-30T06:41:51.740Z,175
2016-03-30T06:42:51.727Z,180
2016-03-30T06:43:51.729Z,175
2016-03-30T06:44:51.654Z,165
2016-03-30T06:45:51.625Z,160
2016-03-30T06:46:51.598Z,170
2016-03-30T06:47:51.615Z,175
2016-03-30T06:48:51.540Z,185
2016-03-30T06:49:51.528Z,205
2016-03-30T06:50:51.498Z,200
2016-03-30T06:51:51.501Z,210
2016-03-30T06:52:51.456Z,215
2016-03-30T06:53:51.444Z,215
2016-03-30T06:54:51.431Z,210
2016-03-30T06:55:51.402Z,200
2016-03-30T06:56:51.358Z,195
2016-03-30T06:57:51.330Z,195
2016-03-30T06:58:51.316Z,200
2016-03-30T06:59:51.320Z,210
2016-03-30T07:00:51.275Z,215
2016-03-30T07:01:51.247Z,205
2016-03-30T07:02:51.219Z,190
2016-03-30T07:03:51.174Z,185
2016-03-30T07:04:51.161Z,185
2016-03-30T07:05:51.149Z,190
2016-03-30T07:06:51.119Z,200
2016-03-30T07:07:51.467Z,205
2016-03-30T07:08:51.063Z,210
2016-03-30T07:09:51.066Z,220
2016-03-30T07:10:51.006Z,230
2016-03-30T07:11:50.977Z,240
2016-03-30T07:12:50.980Z,255
2016-03-30T07:13:50.952Z,260
2016-03-30T07:14:50.924Z,260
2016-03-30T07:15:50.895Z,255
2016-03-30T07:16:50.882Z,255
2016-03-30T07:17:50.838Z,260
2016-03-30T07:18:50.810Z,260
2016-03-30T07:19:50.796Z,260
2016-03-30T07:20:50.768Z,275
2016-03-30T07:21:50.770Z,280
2016-03-30T07:22:50.726Z,260
2016-03-30T07:23:50.698Z,255
2016-03-30T07:24:50.668Z,260
2016-03-30T07:25:50.671Z,270
2016-03-30T07:26:50.643Z,275
2016-03-30T07:27:50.615Z,270
2016-03-30T07:28:50.587Z,255
2016-03-30T07:29:50.557Z,255
2016-03-30T07:30:50.560Z,255
2016-03-30T07:31:50.517Z,265
2016-03-30T07:32:50.487Z,275
2016-03-30T07:33:50.475Z,300
2016-03-30T07:34:50.461Z,315
2016-03-30T07:35:50.433Z,325
2016-03-30T07:36:50.389Z,335
2016-03-30T07:37:50.408Z,330
2016-03-30T07:38:50.364Z,325
2016-03-30T07:39:50.319Z,330
2016-03-30T07:40:50.306Z,345
2016-03-30T07:41:50.293Z,340
2016-03-30T07:42:50.280Z,335
2016-03-30T07:43:50.220Z,315
2016-03-30T07:44:50.223Z,305
2016-03-30T07:45:50.195Z,305
2016-03-30T07:46:50.166Z,310
2016-03-30T07:47:50.122Z,320
2016-03-30T07:48:50.108Z,330
2016-03-30T07:49:50.096Z,320
2016-03-30T07:50:50.068Z,305
2016-03-30T07:51:50.055Z,310
2016-03-30T07:52:50.026Z,320
2016-03-30T07:53:50.012Z,325
2016-03-30T07:54:49.984Z,320
2016-03-30T07:55:49.940Z,310
2016-03-30T07:56:49.927Z,295
2016-03-30T07:57:49.929Z,295
2016-03-30T07:58:49.870Z,305
2016-03-30T07:59:49.857Z,325
2016-03-30T08:00:49.985Z,325
2016-03-30T08:01:49.815Z,330
2016-03-30T08:02:49.803Z,325
2016-03-30T08:03:49.774Z,330
2016-03-30T08:04:49.749Z,335
2016-03-30T08:05:49.820Z,340
2016-03-30T08:06:49.389Z,330
2016-03-30T08:07:49.523Z,325
2016-03-30T08:08:49.766Z,335
2016-03-30T08:09:50.022Z,325
2016-03-30T08:10:49.603Z,310
2016-03-30T08:11:49.606Z,295
2016-03-30T08:12:49.546Z,290
2016-03-30T08:13:49.534Z,280
2016-03-30T08:14:49.505Z,280
2016-03-30T08:15:49.367Z,280
2016-03-30T08:16:49.478Z,280
2016-03-30T08:17:49.451Z,290
2016-03-30T08:18:49.406Z,275
2016-03-30T08:19:49.378Z,265
2016-03-30T08:20:49.364Z,260
2016-03-30T08:21:49.399Z,260
2016-03-30T08:22:49.323Z,260
2016-03-30T08:23:49.294Z,260
2016-03-30T08:24:49.267Z,260
2016-03-30T08:25:49.253Z,255
2016-03-30T08:26:49.256Z,260
2016-03-30T08:27:49.274Z,270
2016-03-30T08:28:49.246Z,265
2016-03-30T08:29:49.155Z,265
2016-03-30T08:30:49.408Z,260
2016-03-30T08:31:49.130Z,265
2016-03-30T08:32:49.101Z,265
2016-03-30T08:33:49.072Z,270
2016-03-30T08:34:49.044Z,280
2016-03-30T08:35:49.022Z,280
2016-03-30T08:36:49.024Z,285
2016-03-30T08:37:48.964Z,295
2016-03-30T08:38:48.951Z,290
2016-03-30T08:39:49.016Z,295
2016-03-30T08:40:48.894Z,300
2016-03-30T08:41:48.896Z,290
2016-03-30T08:42:48.852Z,295
2016-03-30T08:43:48.831Z,300
2016-03-30T08:44:48.818Z,295
2016-03-30T08:45:48.945Z,280
2016-03-30T08:46:48.761Z,275
2016-03-30T08:47:48.748Z,275
2016-03-30T08:48:48.720Z,265
2016-03-30T08:49:48.706Z,270
2016-03-30T08:50:48.662Z,265
2016-03-30T08:51:48.665Z,270
2016-03-30T08:52:48.637Z,310
2016-03-30T08:53:48.623Z,300
2016-03-30T08:54:48.579Z,290
2016-03-30T08:55:48.567Z,275
2016-03-30T08:56:48.539Z,290
2016-03-30T08:57:48.525Z,285
2016-03-30T08:58:48.511Z,310
2016-03-30T08:59:48.484Z,310
2016-03-30T09:00:48.517Z,305
2016-03-30T09:01:48.427Z,300
2016-03-30T09:02:48.413Z,305
2016-03-30T09:03:48.228Z,300
2016-03-30T09:04:48.372Z,295
2016-03-30T09:05:48.328Z,305
2016-03-30T09:06:48.299Z,300
2016-03-30T09:07:48.302Z,300
2016-03-30T09:08:48.273Z,305
2016-03-30T09:09:48.245Z,300
2016-03-30T09:10:48.060Z,310
2016-03-30T09:11:48.188Z,310
2016-03-30T09:12:48.175Z,320
2016-03-30T09:13:48.163Z,340
2016-03-30T09:14:48.758Z,330
2016-03-30T09:15:48.246Z,305
2016-03-30T09:16:48.077Z,315
2016-03-30T09:17:48.063Z,325
2016-03-30T09:18:48.035Z,365
2016-03-30T09:19:48.021Z,350
2016-03-30T09:20:48.010Z,405
2016-03-30T09:21:47.996Z,480
2016-03-30T09:22:47.968Z,440
2016-03-30T09:23:47.923Z,435
2016-03-30T09:24:47.894Z,425
2016-03-30T09:25:47.881Z,345
2016-03-30T09:26:47.870Z,325
2016-03-30T09:27:47.840Z,345
2016-03-30T09:28:47.811Z,420
2016-03-30T09:29:47.814Z,435
2016-03-30T09:30:48.020Z,335
2016-03-30T09:31:47.742Z,290
2016-03-30T09:32:47.728Z,285
2016-03-30T09:33:47.716Z,265
2016-03-30T09:34:47.703Z,285
2016-03-30T09:35:47.659Z,265
2016-03-30T09:36:47.646Z,185
2016-03-30T09:37:47.633Z,180
2016-03-30T09:38:47.604Z,200
2016-03-30T09:39:47.575Z,200
2016-03-30T09:40:47.547Z,235
2016-03-30T09:41:47.535Z,220
2016-03-30T09:42:47.521Z,210
2016-03-30T09:43:47.477Z,275
2016-03-30T09:44:47.464Z,245
2016-03-30T09:45:47.795Z,250
2016-03-30T09:46:47.423Z,305
2016-03-30T09:47:47.410Z,355
2016-03-30T09:48:47.381Z,400
2016-03-30T09:49:47.352Z,425
2016-03-30T09:50:47.355Z,390
2016-03-30T09:51:47.312Z,380
2016-03-30T09:52:47.298Z,340
2016-03-30T09:53:47.270Z,360
2016-03-30T09:54:47.257Z,370
2016-03-30T09:55:47.243Z,365
2016-03-30T09:56:47.200Z,310
2016-03-30T09:57:47.171Z,310
2016-03-30T09:58:47.173Z,345
2016-03-30T09:59:47.145Z,315
2016-03-30T10:00:47.194Z,270
2016-03-30T10:01:47.104Z,225
2016-03-30T10:02:47.059Z,215
2016-03-30T10:03:47.062Z,240
2016-03-30T10:04:47.096Z,305
2016-03-30T10:05:47.005Z,330
2016-03-30T10:06:46.977Z,340
2016-03-30T10:07:46.980Z,325
2016-03-30T10:08:46.936Z,360
2016-03-30T10:09:46.922Z,340
2016-03-30T10:10:46.908Z,335
2016-03-30T10:11:46.880Z,330
2016-03-30T10:12:46.865Z,340
2016-03-30T10:13:46.842Z,330
2016-03-30T10:14:46.787Z,335
2016-03-30T10:15:46.702Z,160
